Terminal Aerodrome Forecast
Issued by NWS

Home | Current Version | Previous Version | Graphics & Text | Print | Product List | Glossary On
Versions: 1 2 3 4 5 6 7 8 9 10 11 12 13 14 15
000
FTUS43 KTOP 261700
TAFFOE
TAF
KFOE 261720Z 2618/2718 34008KT P6SM BKN005
     FM262000 01008KT P6SM SCT003 OVC010
     FM270200 34006KT 6SM -RASN BR OVC009
     FM271200 32012KT P6SM BKN040=

USA.gov is the U.S. government's official web portal to all federal, state and local government web resources and services.